x

Central Aleutians 230nm Sw Dutch Harbor (46072) Wave Buoy

5:50 - Fri 3rd Jul 2015 All times are UTC.

  • Sig Wave height 7.5ft
  • Peak Period 8s
  • Average Period 7s
  • Wind
    11mph, 13mph gusts
  • Sea Temp 49°f
  • Aire Temp 47°f
  • Sea Pressure 1002.7mb

More Historic Weather Station data

Upgrade to MSW Pro to gain access to the past 30 days of data for over 8000 Wavebouys and Weather Stations around the globe.

Join Pro

Comparision Forecast

View Surf forecast
   
vie 07/03 5:50 7.5ft 8s 7s 11 13 mph 1002.7mb 49f 47f
4:50 7ft 8s 7s 9 11 mph 1002.6mb 49f 47f
3:50 8.5ft 9s 7s 11
mph
1002.6mb 49f 47f
2:50 7ft 9s 6s 11
mph
1002.8mb 49f 47f
1:50 7ft 8s 6s 9 11 mph 1003.1mb 49f 47f
12:50 8ft 9s 6s 9 11 mph 1003.3mb 49f 47f
jue 07/02 11:50 8.5ft 8s 6s 11
mph
1003.6mb 48f 47f
10:50 10ft 8s 6s 11 13 mph 1003.8mb 48f 47f
9:50 9.5ft 8s 6s 13 16 mph 1003.8mb 48f 46f
8:50 10ft 8s 6s 11 16 mph 1003.9mb 48f 47f
7:50 9ft 9s 7s 13 16 mph 1004mb 48f 47f
6:50 9ft 8s 6s 13 16 mph 1003.9mb 48f 46f
5:50 8.5ft 8s 6s 16 18 mph 1004mb 48f 46f
4:50 8ft 8s 6s 13 18 mph 1003.9mb 48f 46f
3:50 9ft 8s 6s 16 20 mph 1003.7mb 48f 47f
2:50 9ft 8s 6s 16 18 mph 1003.8mb 48f 47f
1:50 9ft 8s 6s 18 22 mph 1003.9mb 48f 47f
11:50 10ft 8s 6s 22 27 mph 1004.6mb 48f 48f
10:50 10ft 8s 6s 25 29 mph 1004.8mb 48f 48f
9:50 11ft 8s 6s 25 31 mph 1005.1mb 48f 48f
8:50 10.5ft 8s 6s 27 34 mph 1005.6mb 48f 48f
7:50 9.5ft 8s 6s 29 34 mph 1005.9mb 48f 48f
5:50 11ft 8s 6s 29 36 mph 1006.2mb 48f 48f
4:50 11ft 8s 6s 29 38 mph 1006.7mb 48f 48f
3:50 11ft 8s 6s 29 34 mph 1007.3mb 48f 48f
2:50 10.5ft 8s 6s 29 34 mph 1007.8mb 48f 48f
1:50 10.5ft 8s 6s 27 34 mph 1008.2mb 48f 48f
12:50 10ft 8s 6s 27 34 mph 1008.5mb 48f 48f
mié 07/01 11:50 10ft 8s 6s 27 31 mph 1009mb 48f 48f
10:50 10ft 8s 6s 27 34 mph 1009.4mb 49f 48f
9:50 10.5ft 8s 6s 27 31 mph 1009.9mb 48f 48f
8:50 10ft 8s 6s 25 29 mph 1010.2mb 48f 48f
7:50 10ft 8s 6s 25 31 mph 1010.3mb 49f 48f
6:50 10ft 7s 6s 29 34 mph 1010.2mb 49f 48f
5:50 9ft 8s 5s 27 31 mph 1010.5mb 49f 48f
4:50 10ft 7s 5s 27 36 mph 1010.6mb 49f 48f
3:50 9.5ft 8s 6s 27 34 mph 1010.7mb 48f 48f
2:50 9ft 7s 5s 27 31 mph 1011.3mb 48f 48f
1:50 10ft 7s 6s 27 34 mph 1011.8mb 48f 48f
12:50 10ft 9s 6s 25 29 mph 1012.4mb 48f 48f
11:50 9.5ft 9s 6s 25 31 mph 1012.7mb 49f 48f
10:50 9ft 9s 6s 25 29 mph 1013.2mb 49f 47f
9:50 10ft 6s 6s 25 29 mph 1013.5mb 49f 48f
8:50 9ft 9s 6s 27 29 mph 1013.6mb 49f 48f
7:50 9ft 8s 6s 25 29 mph 1013.5mb 49f 48f
6:50 9ft 10s 6s 25 29 mph 1014mb 49f 47f
5:50 8.5ft 9s 6s 22 27 mph 1013.9mb 49f 48f
4:50 7.5ft 10s 5s 25 29 mph 1014.2mb 49f 48f
3:50 7ft 7s 5s 22 27 mph 1014.9mb 49f 48f
2:50 7ft 10s 5s 25 27 mph 1015.1mb 49f 48f
1:50 7.5ft 10s 6s 22 25 mph 1015.2mb 49f 48f
12:50 7ft 9s 5s 22 29 mph 1015.4mb 49f 48f
mar 06/30 11:50 7ft 9s 5s 22 27 mph 1015.7mb 49f 48f
10:50 8ft 10s 6s 22 25 mph 1016.2mb 49f 48f
9:50 8ft 9s 6s 20 25 mph 1015.9mb 49f 48f
8:50 8ft 10s 6s 22 25 mph 1015.6mb 49f 48f
7:50 7.5ft 10s 6s 18 22 mph 1016.4mb 49f 48f
6:50 8ft 10s 6s 18 20 mph 1016.8mb 49f 48f
5:50 7ft 10s 6s 18 20 mph 1016.6mb 49f 48f
4:50 7ft 9s 6s 20 22 mph 1016.5mb 49f 48f
3:50 6.5ft 9s 6s 18 20 mph 1016.5mb 49f 48f
2:50 7ft 10s 6s 18 20 mph 1016.7mb 49f 48f
1:50 6.5ft 10s 6s 18 22 mph 1016.8mb 49f 48f
12:50 7ft 10s 6s 18 20 mph 1017mb 49f 48f
11:50 7ft 9s 6s 18 20 mph 1016.7mb 49f 49f
10:50 6.5ft 8s 6s 18 22 mph 1017.1mb 49f 48f
9:50 7ft 9s 6s 16 20 mph 1017.2mb 49f 48f
8:50 6.5ft 9s 6s 18 20 mph 1016.5mb 49f 49f
7:50 6ft 7s 6s 13 18 mph 1016.4mb 49f 49f
6:50 5.5ft 10s 6s 16 18 mph 1015.9mb 49f 49f
5:50 5ft 9s 5s 16 18 mph 1015.4mb 49f 49f
4:50 5ft 9s 5s 16 22 mph 1015mb 49f 49f
3:50 5ft 9s 5s 18 22 mph 1015mb 48f 49f
2:50 5ft 8s 5s 16 20 mph 1014.6mb 48f 49f
1:50 4.5ft 7s 5s 18 20 mph 1014.2mb 48f 49f
12:50 4.5ft 7s 5s 16 18 mph 1014mb 48f 48f
lun 06/29 11:50 4.5ft 8s 5s 16 18 mph 1013.7mb 48f 48f
10:50 4.5ft 7s 4s 18 20 mph 1013.2mb 48f 48f
9:50 4.5ft 7s 5s 18 20 mph 1013mb 49f 48f
8:50 4.5ft 8s 4s 16 18 mph 1013mb 48f 48f
7:50 4ft 7s 4s 16 20 mph 1012.6mb 48f 47f
6:50 4ft 7s 4s 16 20 mph 1012.2mb 48f 47f
5:50 3.5ft 8s 4s 18 22 mph 1011.7mb 48f 47f
4:50 3.5ft 6s 5s 13 18 mph 1011.3mb 48f 47f
3:50 3ft 8s 5s 16 20 mph 1011mb 48f 47f
2:50 3.5ft 8s 4s 16 18 mph 1010.8mb 49f 47f
1:50 3ft 8s 4s 18 20 mph 1010.6mb 49f 47f
12:50 3ft 11s 5s 13 16 mph 1010.8mb 49f 47f
11:50 3ft 11s 5s 16 18 mph 1010.8mb 49f 47f
10:50 3ft 7s 4s 13 18 mph 1010.9mb 49f 46f
9:50 3ft 8s 5s 11 16 mph 1010.8mb 49f 46f
8:50 3.5ft 7s 6s 11 16 mph 1010.9mb 49f 46f
7:50 3.5ft 7s 6s 11 16 mph 1011mb 49f 46f